sensor_id;sensor_type;location;lat;lon;timestamp;P1;durP1;ratioP1;P2;durP2;ratioP2
5945;SDS011;2998;48.206;16.394;2023-01-04T00:01:26;16.53;;;12.57;;
5945;SDS011;2998;48.206;16.394;2023-01-04T00:03:54;21.67;;;15.00;;
5945;SDS011;2998;48.206;16.394;2023-01-04T00:06:22;25.57;;;15.60;;
5945;SDS011;2998;48.206;16.394;2023-01-04T00:08:50;19.20;;;13.27;;
5945;SDS011;2998;48.206;16.394;2023-01-04T00:11:19;21.53;;;14.77;;
5945;SDS011;2998;48.206;16.394;2023-01-04T00:13:49;24.60;;;15.87;;
5945;SDS011;2998;48.206;16.394;2023-01-04T00:16:19;17.53;;;13.17;;
5945;SDS011;2998;48.206;16.394;2023-01-04T00:18:48;28.30;;;16.63;;
5945;SDS011;2998;48.206;16.394;2023-01-04T00:21:17;36.23;;;20.50;;
5945;SDS011;2998;48.206;16.394;2023-01-04T00:23:47;21.70;;;15.90;;
5945;SDS011;2998;48.206;16.394;2023-01-04T00:26:17;20.30;;;13.50;;
5945;SDS011;2998;48.206;16.394;2023-01-04T00:28:46;18.90;;;12.77;;
5945;SDS011;2998;48.206;16.394;2023-01-04T00:31:21;15.47;;;11.63;;
5945;SDS011;2998;48.206;16.394;2023-01-04T00:33:52;28.33;;;16.70;;
5945;SDS011;2998;48.206;16.394;2023-01-04T00:36:20;26.83;;;15.80;;
5945;SDS011;2998;48.206;16.394;2023-01-04T00:38:48;24.77;;;14.53;;
5945;SDS011;2998;48.206;16.394;2023-01-04T00:41:34;35.83;;;18.17;;
5945;SDS011;2998;48.206;16.394;2023-01-04T00:44:22;27.87;;;16.80;;
5945;SDS011;2998;48.206;16.394;2023-01-04T00:46:52;26.10;;;16.03;;
5945;SDS011;2998;48.206;16.394;2023-01-04T00:49:20;21.20;;;13.70;;
5945;SDS011;2998;48.206;16.394;2023-01-04T00:51:48;20.50;;;12.67;;
5945;SDS011;2998;48.206;16.394;2023-01-04T00:54:16;20.83;;;14.10;;
5945;SDS011;2998;48.206;16.394;2023-01-04T00:56:45;18.33;;;13.30;;
5945;SDS011;2998;48.206;16.394;2023-01-04T00:59:13;20.87;;;13.87;;
5945;SDS011;2998;48.206;16.394;2023-01-04T01:01:42;17.30;;;13.77;;
5945;SDS011;2998;48.206;16.394;2023-01-04T01:04:12;22.13;;;15.80;;
5945;SDS011;2998;48.206;16.394;2023-01-04T01:06:42;26.37;;;18.30;;
5945;SDS011;2998;48.206;16.394;2023-01-04T01:09:10;23.83;;;16.80;;
5945;SDS011;2998;48.206;16.394;2023-01-04T01:11:38;30.50;;;17.30;;
5945;SDS011;2998;48.206;16.394;2023-01-04T01:14:06;18.47;;;13.90;;
5945;SDS011;2998;48.206;16.394;2023-01-04T01:16:35;18.90;;;14.83;;
5945;SDS011;2998;48.206;16.394;2023-01-04T01:19:21;22.13;;;16.07;;
5945;SDS011;2998;48.206;16.394;2023-01-04T01:21:49;19.93;;;15.53;;
5945;SDS011;2998;48.206;16.394;2023-01-04T01:24:18;23.80;;;16.00;;
5945;SDS011;2998;48.206;16.394;2023-01-04T01:26:46;23.53;;;16.83;;
5945;SDS011;2998;48.206;16.394;2023-01-04T01:29:14;19.90;;;14.80;;
5945;SDS011;2998;48.206;16.394;2023-01-04T01:31:42;17.87;;;12.10;;
5945;SDS011;2998;48.206;16.394;2023-01-04T01:34:10;19.30;;;14.70;;
5945;SDS011;2998;48.206;16.394;2023-01-04T01:36:40;23.57;;;16.70;;
5945;SDS011;2998;48.206;16.394;2023-01-04T01:39:07;30.30;;;18.80;;
5945;SDS011;2998;48.206;16.394;2023-01-04T01:41:35;23.00;;;15.23;;
5945;SDS011;2998;48.206;16.394;2023-01-04T01:44:04;20.60;;;14.13;;
5945;SDS011;2998;48.206;16.394;2023-01-04T01:46:34;18.97;;;14.30;;
5945;SDS011;2998;48.206;16.394;2023-01-04T01:49:05;25.77;;;14.87;;
5945;SDS011;2998;48.206;16.394;2023-01-04T01:51:36;15.57;;;11.87;;
5945;SDS011;2998;48.206;16.394;2023-01-04T01:54:09;19.37;;;14.23;;
5945;SDS011;2998;48.206;16.394;2023-01-04T01:56:40;18.40;;;14.13;;
5945;SDS011;2998;48.206;16.394;2023-01-04T01:59:10;38.50;;;23.83;;
5945;SDS011;2998;48.206;16.394;2023-01-04T02:01:39;22.47;;;14.63;;
5945;SDS011;2998;48.206;16.394;2023-01-04T02:04:07;17.20;;;12.00;;
5945;SDS011;2998;48.206;16.394;2023-01-04T02:06:37;24.43;;;14.57;;
5945;SDS011;2998;48.206;16.394;2023-01-04T02:09:08;21.63;;;13.23;;
5945;SDS011;2998;48.206;16.394;2023-01-04T02:11:36;22.40;;;13.50;;
5945;SDS011;2998;48.206;16.394;2023-01-04T02:14:04;14.53;;;11.87;;
5945;SDS011;2998;48.206;16.394;2023-01-04T02:16:53;15.50;;;12.17;;
5945;SDS011;2998;48.206;16.394;2023-01-04T02:19:33;12.23;;;10.53;;
5945;SDS011;2998;48.206;16.394;2023-01-04T02:22:20;13.93;;;11.30;;
5945;SDS011;2998;48.206;16.394;2023-01-04T02:25:06;17.60;;;11.30;;
5945;SDS011;2998;48.206;16.394;2023-01-04T02:27:46;14.67;;;11.30;;
5945;SDS011;2998;48.206;16.394;2023-01-04T02:30:24;14.83;;;10.33;;
5945;SDS011;2998;48.206;16.394;2023-01-04T02:33:36;15.83;;;11.00;;
5945;SDS011;2998;48.206;16.394;2023-01-04T02:36:10;10.77;;;9.67;;
5945;SDS011;2998;48.206;16.394;2023-01-04T02:38:48;11.03;;;9.80;;
5945;SDS011;2998;48.206;16.394;2023-01-04T02:41:26;10.20;;;8.80;;
5945;SDS011;2998;48.206;16.394;2023-01-04T02:43:57;12.30;;;10.30;;
5945;SDS011;2998;48.206;16.394;2023-01-04T02:46:49;11.53;;;9.53;;
5945;SDS011;2998;48.206;16.394;2023-01-04T02:49:21;14.93;;;11.90;;
5945;SDS011;2998;48.206;16.394;2023-01-04T02:52:07;15.43;;;11.40;;
5945;SDS011;2998;48.206;16.394;2023-01-04T02:54:35;11.53;;;10.47;;
5945;SDS011;2998;48.206;16.394;2023-01-04T02:57:12;13.87;;;10.43;;
5945;SDS011;2998;48.206;16.394;2023-01-04T02:59:52;15.53;;;12.73;;
5945;SDS011;2998;48.206;16.394;2023-01-04T03:02:30;17.60;;;12.80;;
5945;SDS011;2998;48.206;16.394;2023-01-04T03:05:29;17.30;;;11.70;;
5945;SDS011;2998;48.206;16.394;2023-01-04T03:08:21;18.33;;;11.00;;
5945;SDS011;2998;48.206;16.394;2023-01-04T03:10:56;17.03;;;13.53;;
5945;SDS011;2998;48.206;16.394;2023-01-04T03:13:27;10.67;;;9.67;;
5945;SDS011;2998;48.206;16.394;2023-01-04T03:15:57;10.97;;;9.17;;
5945;SDS011;2998;48.206;16.394;2023-01-04T03:18:28;20.73;;;14.30;;
5945;SDS011;2998;48.206;16.394;2023-01-04T03:20:59;14.20;;;10.10;;
5945;SDS011;2998;48.206;16.394;2023-01-04T03:23:28;14.43;;;10.83;;
5945;SDS011;2998;48.206;16.394;2023-01-04T03:26:16;17.70;;;11.20;;
5945;SDS011;2998;48.206;16.394;2023-01-04T03:29:06;15.10;;;11.80;;
5945;SDS011;2998;48.206;16.394;2023-01-04T03:31:56;18.43;;;13.77;;
5945;SDS011;2998;48.206;16.394;2023-01-04T03:34:51;21.50;;;14.37;;
5945;SDS011;2998;48.206;16.394;2023-01-04T03:37:41;17.73;;;12.23;;
5945;SDS011;2998;48.206;16.394;2023-01-04T03:40:17;14.50;;;11.30;;
5945;SDS011;2998;48.206;16.394;2023-01-04T03:43:06;11.40;;;9.20;;
5945;SDS011;2998;48.206;16.394;2023-01-04T03:45:54;12.03;;;9.40;;
5945;SDS011;2998;48.206;16.394;2023-01-04T03:48:42;14.80;;;10.47;;
5945;SDS011;2998;48.206;16.394;2023-01-04T03:51:20;11.13;;;8.87;;
5945;SDS011;2998;48.206;16.394;2023-01-04T03:53:52;12.20;;;9.80;;
5945;SDS011;2998;48.206;16.394;2023-01-04T03:56:23;13.67;;;10.53;;
5945;SDS011;2998;48.206;16.394;2023-01-04T03:58:51;11.30;;;10.00;;
5945;SDS011;2998;48.206;16.394;2023-01-04T04:01:21;10.33;;;9.00;;
5945;SDS011;2998;48.206;16.394;2023-01-04T04:03:50;17.47;;;10.13;;
5945;SDS011;2998;48.206;16.394;2023-01-04T04:06:36;13.23;;;9.10;;
5945;SDS011;2998;48.206;16.394;2023-01-04T04:09:22;14.93;;;11.33;;
5945;SDS011;2998;48.206;16.394;2023-01-04T04:11:50;12.67;;;10.10;;
5945;SDS011;2998;48.206;16.394;2023-01-04T04:14:18;13.00;;;9.30;;
5945;SDS011;2998;48.206;16.394;2023-01-04T04:16:46;8.90;;;8.00;;
5945;SDS011;2998;48.206;16.394;2023-01-04T04:19:14;7.73;;;7.10;;
5945;SDS011;2998;48.206;16.394;2023-01-04T04:21:42;9.17;;;8.33;;
5945;SDS011;2998;48.206;16.394;2023-01-04T04:24:11;8.37;;;7.67;;
5945;SDS011;2998;48.206;16.394;2023-01-04T04:26:44;9.00;;;8.10;;
5945;SDS011;2998;48.206;16.394;2023-01-04T04:29:13;11.57;;;8.53;;
5945;SDS011;2998;48.206;16.394;2023-01-04T04:31:40;11.80;;;8.40;;
5945;SDS011;2998;48.206;16.394;2023-01-04T04:34:08;12.50;;;8.53;;
5945;SDS011;2998;48.206;16.394;2023-01-04T04:36:36;8.43;;;7.60;;
5945;SDS011;2998;48.206;16.394;2023-01-04T04:39:04;11.83;;;8.47;;
5945;SDS011;2998;48.206;16.394;2023-01-04T04:41:32;8.17;;;7.27;;
5945;SDS011;2998;48.206;16.394;2023-01-04T04:44:09;9.60;;;8.13;;
5945;SDS011;2998;48.206;16.394;2023-01-04T04:46:38;8.63;;;7.00;;
5945;SDS011;2998;48.206;16.394;2023-01-04T04:49:06;9.53;;;7.20;;
5945;SDS011;2998;48.206;16.394;2023-01-04T04:51:34;11.87;;;8.77;;
5945;SDS011;2998;48.206;16.394;2023-01-04T04:54:03;10.87;;;8.80;;
5945;SDS011;2998;48.206;16.394;2023-01-04T04:56:31;11.30;;;9.43;;
5945;SDS011;2998;48.206;16.394;2023-01-04T04:58:59;10.10;;;9.03;;
5945;SDS011;2998;48.206;16.394;2023-01-04T05:01:28;9.63;;;8.63;;
5945;SDS011;2998;48.206;16.394;2023-01-04T05:03:57;9.07;;;7.53;;
5945;SDS011;2998;48.206;16.394;2023-01-04T05:06:25;8.20;;;7.40;;
5945;SDS011;2998;48.206;16.394;2023-01-04T05:08:53;8.17;;;6.80;;
5945;SDS011;2998;48.206;16.394;2023-01-04T05:11:21;12.70;;;9.00;;
5945;SDS011;2998;48.206;16.394;2023-01-04T05:14:03;8.20;;;7.50;;
5945;SDS011;2998;48.206;16.394;2023-01-04T05:16:32;9.47;;;6.53;;
5945;SDS011;2998;48.206;16.394;2023-01-04T05:19:00;11.20;;;7.00;;
5945;SDS011;2998;48.206;16.394;2023-01-04T05:21:28;8.93;;;7.17;;
5945;SDS011;2998;48.206;16.394;2023-01-04T05:23:56;9.07;;;8.10;;
5945;SDS011;2998;48.206;16.394;2023-01-04T05:26:24;10.33;;;8.70;;
5945;SDS011;2998;48.206;16.394;2023-01-04T05:28:52;19.70;;;10.33;;
5945;SDS011;2998;48.206;16.394;2023-01-04T05:31:20;10.33;;;8.33;;
5945;SDS011;2998;48.206;16.394;2023-01-04T05:33:48;10.70;;;8.10;;
5945;SDS011;2998;48.206;16.394;2023-01-04T05:36:16;9.17;;;7.57;;
5945;SDS011;2998;48.206;16.394;2023-01-04T05:38:44;8.53;;;7.30;;
5945;SDS011;2998;48.206;16.394;2023-01-04T05:41:12;9.73;;;8.60;;
5945;SDS011;2998;48.206;16.394;2023-01-04T05:43:54;10.23;;;7.37;;
5945;SDS011;2998;48.206;16.394;2023-01-04T05:46:22;12.40;;;9.20;;
5945;SDS011;2998;48.206;16.394;2023-01-04T05:48:51;9.00;;;7.70;;
5945;SDS011;2998;48.206;16.394;2023-01-04T05:51:19;9.20;;;8.03;;
5945;SDS011;2998;48.206;16.394;2023-01-04T05:53:47;9.23;;;8.23;;
5945;SDS011;2998;48.206;16.394;2023-01-04T05:56:15;12.83;;;9.23;;
5945;SDS011;2998;48.206;16.394;2023-01-04T05:58:43;10.00;;;8.90;;
5945;SDS011;2998;48.206;16.394;2023-01-04T06:01:11;16.13;;;8.70;;
5945;SDS011;2998;48.206;16.394;2023-01-04T06:03:39;10.70;;;9.60;;
5945;SDS011;2998;48.206;16.394;2023-01-04T06:06:08;14.30;;;10.90;;
5945;SDS011;2998;48.206;16.394;2023-01-04T06:08:36;11.53;;;9.53;;
5945;SDS011;2998;48.206;16.394;2023-01-04T06:11:04;11.43;;;9.77;;
5945;SDS011;2998;48.206;16.394;2023-01-04T06:13:32;10.90;;;8.67;;
5945;SDS011;2998;48.206;16.394;2023-01-04T06:16:00;10.57;;;9.20;;
5945;SDS011;2998;48.206;16.394;2023-01-04T06:18:28;12.50;;;10.10;;
5945;SDS011;2998;48.206;16.394;2023-01-04T06:20:56;10.73;;;9.73;;
5945;SDS011;2998;48.206;16.394;2023-01-04T06:23:25;14.00;;;10.30;;
5945;SDS011;2998;48.206;16.394;2023-01-04T06:25:53;13.60;;;10.80;;
5945;SDS011;2998;48.206;16.394;2023-01-04T06:28:21;12.63;;;10.10;;
5945;SDS011;2998;48.206;16.394;2023-01-04T06:30:49;13.20;;;10.43;;
5945;SDS011;2998;48.206;16.394;2023-01-04T06:33:17;11.47;;;9.23;;
5945;SDS011;2998;48.206;16.394;2023-01-04T06:35:51;12.40;;;10.47;;
5945;SDS011;2998;48.206;16.394;2023-01-04T06:38:20;14.67;;;9.43;;
5945;SDS011;2998;48.206;16.394;2023-01-04T06:40:49;12.37;;;8.03;;
5945;SDS011;2998;48.206;16.394;2023-01-04T06:43:17;9.67;;;8.60;;
5945;SDS011;2998;48.206;16.394;2023-01-04T06:45:45;11.43;;;8.87;;
5945;SDS011;2998;48.206;16.394;2023-01-04T06:48:13;16.00;;;12.13;;
5945;SDS011;2998;48.206;16.394;2023-01-04T06:50:44;16.03;;;12.80;;
5945;SDS011;2998;48.206;16.394;2023-01-04T06:53:11;21.00;;;15.00;;
5945;SDS011;2998;48.206;16.394;2023-01-04T06:55:39;28.67;;;17.30;;
5945;SDS011;2998;48.206;16.394;2023-01-04T06:58:09;26.70;;;17.00;;
5945;SDS011;2998;48.206;16.394;2023-01-04T07:00:37;24.17;;;16.67;;
5945;SDS011;2998;48.206;16.394;2023-01-04T07:03:05;43.57;;;23.80;;
5945;SDS011;2998;48.206;16.394;2023-01-04T07:05:40;35.37;;;16.57;;
5945;SDS011;2998;48.206;16.394;2023-01-04T07:08:08;49.10;;;33.70;;
5945;SDS011;2998;48.206;16.394;2023-01-04T07:10:37;45.50;;;29.83;;
5945;SDS011;2998;48.206;16.394;2023-01-04T07:13:05;34.23;;;23.73;;
5945;SDS011;2998;48.206;16.394;2023-01-04T07:15:35;29.10;;;19.30;;
5945;SDS011;2998;48.206;16.394;2023-01-04T07:18:06;29.80;;;20.00;;
5945;SDS011;2998;48.206;16.394;2023-01-04T07:20:34;29.30;;;18.57;;
5945;SDS011;2998;48.206;16.394;2023-01-04T07:23:03;28.20;;;18.90;;
5945;SDS011;2998;48.206;16.394;2023-01-04T07:25:31;29.37;;;17.70;;
5945;SDS011;2998;48.206;16.394;2023-01-04T07:27:59;31.17;;;22.27;;
5945;SDS011;2998;48.206;16.394;2023-01-04T07:30:27;24.40;;;13.33;;
5945;SDS011;2998;48.206;16.394;2023-01-04T07:32:56;20.70;;;13.90;;
5945;SDS011;2998;48.206;16.394;2023-01-04T07:35:24;23.80;;;15.33;;
5945;SDS011;2998;48.206;16.394;2023-01-04T07:37:52;25.10;;;14.40;;
5945;SDS011;2998;48.206;16.394;2023-01-04T07:40:24;27.13;;;15.53;;
5945;SDS011;2998;48.206;16.394;2023-01-04T07:42:54;25.03;;;16.17;;
5945;SDS011;2998;48.206;16.394;2023-01-04T07:45:23;38.77;;;17.60;;
5945;SDS011;2998;48.206;16.394;2023-01-04T07:47:51;30.40;;;18.47;;
5945;SDS011;2998;48.206;16.394;2023-01-04T07:50:21;32.37;;;19.00;;
5945;SDS011;2998;48.206;16.394;2023-01-04T07:52:49;42.07;;;22.83;;
5945;SDS011;2998;48.206;16.394;2023-01-04T07:55:17;39.60;;;22.30;;
5945;SDS011;2998;48.206;16.394;2023-01-04T07:57:45;34.77;;;22.97;;
5945;SDS011;2998;48.206;16.394;2023-01-04T08:00:13;44.83;;;23.67;;
5945;SDS011;2998;48.206;16.394;2023-01-04T08:02:41;42.57;;;23.20;;
5945;SDS011;2998;48.206;16.394;2023-01-04T08:05:09;43.63;;;26.40;;
5945;SDS011;2998;48.206;16.394;2023-01-04T08:07:39;47.63;;;26.50;;
5945;SDS011;2998;48.206;16.394;2023-01-04T08:10:07;48.47;;;32.87;;
5945;SDS011;2998;48.206;16.394;2023-01-04T08:12:35;57.50;;;35.00;;
5945;SDS011;2998;48.206;16.394;2023-01-04T08:15:03;200.47;;;93.40;;
5945;SDS011;2998;48.206;16.394;2023-01-04T08:17:32;70.60;;;39.70;;
5945;SDS011;2998;48.206;16.394;2023-01-04T08:20:00;80.63;;;44.17;;
5945;SDS011;2998;48.206;16.394;2023-01-04T08:22:28;63.20;;;37.70;;
5945;SDS011;2998;48.206;16.394;2023-01-04T08:24:57;45.00;;;28.60;;
5945;SDS011;2998;48.206;16.394;2023-01-04T08:27:25;40.53;;;25.40;;
5945;SDS011;2998;48.206;16.394;2023-01-04T08:29:53;41.03;;;25.63;;
5945;SDS011;2998;48.206;16.394;2023-01-04T08:32:21;46.17;;;27.03;;
5945;SDS011;2998;48.206;16.394;2023-01-04T08:34:49;28.33;;;17.70;;
5945;SDS011;2998;48.206;16.394;2023-01-04T08:37:18;37.87;;;23.60;;
5945;SDS011;2998;48.206;16.394;2023-01-04T08:39:46;43.80;;;26.20;;
5945;SDS011;2998;48.206;16.394;2023-01-04T08:42:17;48.60;;;28.53;;
5945;SDS011;2998;48.206;16.394;2023-01-04T08:44:56;46.43;;;26.40;;
5945;SDS011;2998;48.206;16.394;2023-01-04T08:47:27;46.13;;;26.83;;
5945;SDS011;2998;48.206;16.394;2023-01-04T08:49:55;52.33;;;29.00;;
5945;SDS011;2998;48.206;16.394;2023-01-04T08:52:23;49.03;;;26.73;;
5945;SDS011;2998;48.206;16.394;2023-01-04T08:54:51;40.13;;;25.40;;
5945;SDS011;2998;48.206;16.394;2023-01-04T08:57:21;44.70;;;27.93;;
5945;SDS011;2998;48.206;16.394;2023-01-04T08:59:49;43.77;;;27.40;;
5945;SDS011;2998;48.206;16.394;2023-01-04T09:02:21;41.13;;;24.90;;
5945;SDS011;2998;48.206;16.394;2023-01-04T09:04:50;40.27;;;26.53;;
5945;SDS011;2998;48.206;16.394;2023-01-04T09:07:18;42.10;;;26.57;;
5945;SDS011;2998;48.206;16.394;2023-01-04T09:09:46;62.23;;;35.53;;
5945;SDS011;2998;48.206;16.394;2023-01-04T09:12:14;44.73;;;25.43;;
5945;SDS011;2998;48.206;16.394;2023-01-04T09:14:43;25.00;;;18.13;;
5945;SDS011;2998;48.206;16.394;2023-01-04T09:17:11;27.20;;;17.37;;
5945;SDS011;2998;48.206;16.394;2023-01-04T09:19:39;25.60;;;15.50;;
5945;SDS011;2998;48.206;16.394;2023-01-04T09:22:07;31.27;;;18.20;;
5945;SDS011;2998;48.206;16.394;2023-01-04T09:24:35;31.23;;;18.10;;
5945;SDS011;2998;48.206;16.394;2023-01-04T09:27:03;30.03;;;19.40;;
5945;SDS011;2998;48.206;16.394;2023-01-04T09:29:31;31.67;;;17.63;;
5945;SDS011;2998;48.206;16.394;2023-01-04T09:32:00;50.40;;;21.60;;
5945;SDS011;2998;48.206;16.394;2023-01-04T09:34:28;89.83;;;19.73;;
5945;SDS011;2998;48.206;16.394;2023-01-04T09:36:56;159.43;;;22.90;;
5945;SDS011;2998;48.206;16.394;2023-01-04T09:39:24;244.27;;;30.13;;
5945;SDS011;2998;48.206;16.394;2023-01-04T09:41:56;198.80;;;28.37;;
5945;SDS011;2998;48.206;16.394;2023-01-04T09:44:30;245.53;;;27.47;;
5945;SDS011;2998;48.206;16.394;2023-01-04T09:47:28;424.47;;;40.17;;
5945;SDS011;2998;48.206;16.394;2023-01-04T09:50:00;367.23;;;37.10;;
5945;SDS011;2998;48.206;16.394;2023-01-04T09:52:38;344.67;;;35.23;;
5945;SDS011;2998;48.206;16.394;2023-01-04T09:55:13;459.97;;;41.70;;
5945;SDS011;2998;48.206;16.394;2023-01-04T09:58:05;448.33;;;37.80;;
5945;SDS011;2998;48.206;16.394;2023-01-04T10:00:39;451.00;;;48.13;;
5945;SDS011;2998;48.206;16.394;2023-01-04T10:03:12;422.60;;;44.80;;
5945;SDS011;2998;48.206;16.394;2023-01-04T10:05:42;477.80;;;45.23;;
5945;SDS011;2998;48.206;16.394;2023-01-04T10:08:12;415.20;;;40.83;;
5945;SDS011;2998;48.206;16.394;2023-01-04T10:10:53;465.50;;;46.40;;
5945;SDS011;2998;48.206;16.394;2023-01-04T10:13:31;523.40;;;44.23;;
5945;SDS011;2998;48.206;16.394;2023-01-04T10:16:07;387.27;;;40.17;;
5945;SDS011;2998;48.206;16.394;2023-01-04T10:18:52;486.83;;;40.80;;
5945;SDS011;2998;48.206;16.394;2023-01-04T10:21:48;298.87;;;33.30;;
5945;SDS011;2998;48.206;16.394;2023-01-04T10:24:23;431.77;;;48.03;;
5945;SDS011;2998;48.206;16.394;2023-01-04T10:26:58;326.80;;;36.90;;
5945;SDS011;2998;48.206;16.394;2023-01-04T10:29:34;309.73;;;42.83;;
5945;SDS011;2998;48.206;16.394;2023-01-04T10:32:21;410.87;;;43.13;;
5945;SDS011;2998;48.206;16.394;2023-01-04T10:34:58;531.90;;;46.50;;
5945;SDS011;2998;48.206;16.394;2023-01-04T10:37:29;286.87;;;35.90;;
5945;SDS011;2998;48.206;16.394;2023-01-04T10:39:59;96.17;;;30.13;;
5945;SDS011;2998;48.206;16.394;2023-01-04T10:42:30;48.90;;;25.67;;
5945;SDS011;2998;48.206;16.394;2023-01-04T10:45:10;70.57;;;33.40;;
5945;SDS011;2998;48.206;16.394;2023-01-04T10:47:43;87.90;;;28.90;;
5945;SDS011;2998;48.206;16.394;2023-01-04T10:50:21;77.40;;;28.37;;
5945;SDS011;2998;48.206;16.394;2023-01-04T10:52:55;56.60;;;27.17;;
5945;SDS011;2998;48.206;16.394;2023-01-04T10:55:28;59.40;;;27.63;;
5945;SDS011;2998;48.206;16.394;2023-01-04T10:57:58;50.43;;;26.67;;
5945;SDS011;2998;48.206;16.394;2023-01-04T11:00:31;55.70;;;27.00;;
5945;SDS011;2998;48.206;16.394;2023-01-04T11:03:05;50.40;;;26.30;;
5945;SDS011;2998;48.206;16.394;2023-01-04T11:05:38;43.63;;;23.90;;
5945;SDS011;2998;48.206;16.394;2023-01-04T11:08:09;69.40;;;26.13;;
5945;SDS011;2998;48.206;16.394;2023-01-04T11:10:41;67.97;;;27.93;;
5945;SDS011;2998;48.206;16.394;2023-01-04T11:13:12;48.37;;;25.70;;
5945;SDS011;2998;48.206;16.394;2023-01-04T11:15:40;44.10;;;24.73;;
5945;SDS011;2998;48.206;16.394;2023-01-04T11:18:09;46.90;;;24.27;;
5945;SDS011;2998;48.206;16.394;2023-01-04T11:20:40;42.00;;;25.00;;
5945;SDS011;2998;48.206;16.394;2023-01-04T11:23:12;37.40;;;22.90;;
5945;SDS011;2998;48.206;16.394;2023-01-04T11:25:42;34.67;;;21.37;;
5945;SDS011;2998;48.206;16.394;2023-01-04T11:28:22;37.73;;;22.07;;
5945;SDS011;2998;48.206;16.394;2023-01-04T11:30:53;32.63;;;20.67;;
5945;SDS011;2998;48.206;16.394;2023-01-04T11:33:25;29.83;;;18.97;;
5945;SDS011;2998;48.206;16.394;2023-01-04T11:35:55;33.63;;;20.17;;
5945;SDS011;2998;48.206;16.394;2023-01-04T11:38:25;26.23;;;18.30;;
5945;SDS011;2998;48.206;16.394;2023-01-04T11:40:55;27.60;;;18.83;;
5945;SDS011;2998;48.206;16.394;2023-01-04T11:43:25;20.03;;;11.93;;
5945;SDS011;2998;48.206;16.394;2023-01-04T11:45:54;16.27;;;12.17;;
5945;SDS011;2998;48.206;16.394;2023-01-04T11:48:34;11.30;;;8.87;;
5945;SDS011;2998;48.206;16.394;2023-01-04T11:51:05;16.27;;;11.13;;
5945;SDS011;2998;48.206;16.394;2023-01-04T11:53:44;13.00;;;11.60;;
5945;SDS011;2998;48.206;16.394;2023-01-04T11:56:14;10.47;;;7.30;;
5945;SDS011;2998;48.206;16.394;2023-01-04T11:58:44;12.40;;;9.83;;
5945;SDS011;2998;48.206;16.394;2023-01-04T12:01:31;12.13;;;8.80;;
5945;SDS011;2998;48.206;16.394;2023-01-04T12:04:00;10.03;;;8.80;;
5945;SDS011;2998;48.206;16.394;2023-01-04T12:06:34;17.93;;;12.00;;
5945;SDS011;2998;48.206;16.394;2023-01-04T12:09:04;26.07;;;16.30;;
5945;SDS011;2998;48.206;16.394;2023-01-04T12:11:33;24.63;;;16.50;;
5945;SDS011;2998;48.206;16.394;2023-01-04T12:14:02;54.30;;;22.80;;
5945;SDS011;2998;48.206;16.394;2023-01-04T12:16:40;49.23;;;25.10;;
5945;SDS011;2998;48.206;16.394;2023-01-04T12:19:12;67.07;;;30.30;;
5945;SDS011;2998;48.206;16.394;2023-01-04T12:21:43;41.30;;;20.33;;
5945;SDS011;2998;48.206;16.394;2023-01-04T12:24:15;29.23;;;19.00;;
5945;SDS011;2998;48.206;16.394;2023-01-04T12:26:45;27.90;;;16.50;;
5945;SDS011;2998;48.206;16.394;2023-01-04T12:29:38;27.80;;;17.00;;
5945;SDS011;2998;48.206;16.394;2023-01-04T12:38:09;23.40;;;13.73;;
5945;SDS011;2998;48.206;16.394;2023-01-04T12:40:52;18.00;;;11.50;;
5945;SDS011;2998;48.206;16.394;2023-01-04T12:43:22;23.80;;;12.80;;
5945;SDS011;2998;48.206;16.394;2023-01-04T13:04:48;20.23;;;10.03;;
5945;SDS011;2998;48.206;16.394;2023-01-04T13:07:39;23.13;;;12.50;;
5945;SDS011;2998;48.206;16.394;2023-01-04T13:10:17;12.23;;;9.40;;
5945;SDS011;2998;48.206;16.394;2023-01-04T13:15:53;13.73;;;9.57;;
5945;SDS011;2998;48.206;16.394;2023-01-04T13:18:35;7.13;;;5.10;;
5945;SDS011;2998;48.206;16.394;2023-01-04T13:21:08;5.73;;;5.23;;
5945;SDS011;2998;48.206;16.394;2023-01-04T13:23:38;11.17;;;7.80;;
5945;SDS011;2998;48.206;16.394;2023-01-04T13:26:32;6.80;;;4.70;;
5945;SDS011;2998;48.206;16.394;2023-01-04T13:29:13;3.47;;;3.23;;
5945;SDS011;2998;48.206;16.394;2023-01-04T13:31:48;6.30;;;3.50;;
5945;SDS011;2998;48.206;16.394;2023-01-04T13:34:22;9.63;;;3.70;;
5945;SDS011;2998;48.206;16.394;2023-01-04T13:36:52;5.63;;;3.70;;
5945;SDS011;2998;48.206;16.394;2023-01-04T13:39:21;4.00;;;3.47;;
5945;SDS011;2998;48.206;16.394;2023-01-04T13:41:49;4.10;;;3.43;;
5945;SDS011;2998;48.206;16.394;2023-01-04T13:44:19;3.73;;;3.03;;
5945;SDS011;2998;48.206;16.394;2023-01-04T13:47:11;4.57;;;3.10;;
5945;SDS011;2998;48.206;16.394;2023-01-04T13:49:39;3.50;;;3.20;;
5945;SDS011;2998;48.206;16.394;2023-01-04T13:52:19;5.50;;;3.67;;
5945;SDS011;2998;48.206;16.394;2023-01-04T13:55:11;3.77;;;2.80;;
5945;SDS011;2998;48.206;16.394;2023-01-04T13:57:51;4.83;;;3.63;;
5945;SDS011;2998;48.206;16.394;2023-01-04T14:00:20;4.70;;;3.70;;
5945;SDS011;2998;48.206;16.394;2023-01-04T14:03:00;3.33;;;3.03;;
5945;SDS011;2998;48.206;16.394;2023-01-04T14:05:31;4.60;;;3.53;;
5945;SDS011;2998;48.206;16.394;2023-01-04T14:07:59;3.43;;;3.20;;
5945;SDS011;2998;48.206;16.394;2023-01-04T14:10:27;1.90;;;1.80;;
5945;SDS011;2998;48.206;16.394;2023-01-04T14:12:55;2.93;;;2.00;;
5945;SDS011;2998;48.206;16.394;2023-01-04T14:15:24;3.10;;;2.90;;
5945;SDS011;2998;48.206;16.394;2023-01-04T14:17:52;2.40;;;2.20;;
5945;SDS011;2998;48.206;16.394;2023-01-04T14:20:32;2.73;;;2.53;;
5945;SDS011;2998;48.206;16.394;2023-01-04T14:23:01;2.00;;;1.90;;
5945;SDS011;2998;48.206;16.394;2023-01-04T14:25:35;2.73;;;2.53;;
5945;SDS011;2998;48.206;16.394;2023-01-04T14:31:18;3.20;;;2.83;;
5945;SDS011;2998;48.206;16.394;2023-01-04T14:33:48;2.43;;;2.23;;
5945;SDS011;2998;48.206;16.394;2023-01-04T14:36:22;2.23;;;1.80;;
5945;SDS011;2998;48.206;16.394;2023-01-04T14:38:57;2.13;;;1.80;;
5945;SDS011;2998;48.206;16.394;2023-01-04T14:41:28;3.47;;;2.77;;
5945;SDS011;2998;48.206;16.394;2023-01-04T14:44:02;3.27;;;3.00;;
5945;SDS011;2998;48.206;16.394;2023-01-04T14:46:35;2.23;;;2.13;;
5945;SDS011;2998;48.206;16.394;2023-01-04T14:49:03;2.77;;;2.53;;
5945;SDS011;2998;48.206;16.394;2023-01-04T14:51:33;3.60;;;2.87;;
5945;SDS011;2998;48.206;16.394;2023-01-04T14:54:03;2.37;;;2.17;;
5945;SDS011;2998;48.206;16.394;2023-01-04T14:56:32;2.50;;;2.30;;
5945;SDS011;2998;48.206;16.394;2023-01-04T14:59:00;3.37;;;2.97;;
5945;SDS011;2998;48.206;16.394;2023-01-04T15:01:28;3.30;;;3.10;;
5945;SDS011;2998;48.206;16.394;2023-01-04T15:03:56;6.23;;;2.93;;
5945;SDS011;2998;48.206;16.394;2023-01-04T15:06:24;2.43;;;2.23;;
5945;SDS011;2998;48.206;16.394;2023-01-04T15:08:53;2.37;;;2.17;;
5945;SDS011;2998;48.206;16.394;2023-01-04T15:11:21;2.30;;;2.10;;
5945;SDS011;2998;48.206;16.394;2023-01-04T15:13:49;2.33;;;2.13;;
5945;SDS011;2998;48.206;16.394;2023-01-04T15:16:17;3.30;;;3.10;;
5945;SDS011;2998;48.206;16.394;2023-01-04T15:18:45;2.67;;;2.43;;
5945;SDS011;2998;48.206;16.394;2023-01-04T15:21:13;1.80;;;1.70;;
5945;SDS011;2998;48.206;16.394;2023-01-04T15:23:41;3.53;;;3.33;;
5945;SDS011;2998;48.206;16.394;2023-01-04T15:26:11;4.13;;;3.27;;
5945;SDS011;2998;48.206;16.394;2023-01-04T15:28:39;2.97;;;2.77;;
5945;SDS011;2998;48.206;16.394;2023-01-04T15:31:07;2.03;;;1.80;;
5945;SDS011;2998;48.206;16.394;2023-01-04T15:33:36;1.93;;;1.83;;
5945;SDS011;2998;48.206;16.394;2023-01-04T15:36:06;1.50;;;1.40;;
5945;SDS011;2998;48.206;16.394;2023-01-04T15:38:35;2.30;;;2.00;;
5945;SDS011;2998;48.206;16.394;2023-01-04T15:41:04;3.43;;;1.70;;